sensor_id;sensor_type;location;lat;lon;timestamp;pressure;altitude;pressure_sealevel;temperature
72236;BMP280;60146;52.498;13.462;2023-12-20T00:00:50;97074.81;;;8.51
72236;BMP280;60146;52.498;13.462;2023-12-20T00:03:15;97065.94;;;8.56
72236;BMP280;60146;52.498;13.462;2023-12-20T00:05:40;97075.72;;;8.62
72236;BMP280;60146;52.498;13.462;2023-12-20T00:08:06;97094.38;;;8.64
72236;BMP280;60146;52.498;13.462;2023-12-20T00:10:31;97131.06;;;8.52
72236;BMP280;60146;52.498;13.462;2023-12-20T00:12:57;97107.69;;;8.59
72236;BMP280;60146;52.498;13.462;2023-12-20T00:15:22;97098.50;;;8.43
72236;BMP280;60146;52.498;13.462;2023-12-20T00:17:49;97075.50;;;8.49
72236;BMP280;60146;52.498;13.462;2023-12-20T00:20:14;97073.78;;;8.34
72236;BMP280;60146;52.498;13.462;2023-12-20T00:22:39;97030.81;;;8.50
72236;BMP280;60146;52.498;13.462;2023-12-20T00:25:05;97052.72;;;8.46
72236;BMP280;60146;52.498;13.462;2023-12-20T00:27:30;97046.06;;;8.48
72236;BMP280;60146;52.498;13.462;2023-12-20T00:29:56;97033.38;;;8.47
72236;BMP280;60146;52.498;13.462;2023-12-20T00:32:21;96999.25;;;8.58
72236;BMP280;60146;52.498;13.462;2023-12-20T00:34:46;97034.94;;;8.51
72236;BMP280;60146;52.498;13.462;2023-12-20T00:37:11;97042.19;;;8.39
72236;BMP280;60146;52.498;13.462;2023-12-20T00:39:37;97018.03;;;8.42
72236;BMP280;60146;52.498;13.462;2023-12-20T00:42:02;97006.59;;;8.49
72236;BMP280;60146;52.498;13.462;2023-12-20T00:44:28;97006.59;;;8.49
72236;BMP280;60146;52.498;13.462;2023-12-20T00:46:53;97026.56;;;8.39
72236;BMP280;60146;52.498;13.462;2023-12-20T00:49:18;96982.31;;;8.46
72236;BMP280;60146;52.498;13.462;2023-12-20T00:51:44;96972.25;;;8.44
72236;BMP280;60146;52.498;13.462;2023-12-20T00:54:09;96974.19;;;8.50
72236;BMP280;60146;52.498;13.462;2023-12-20T00:56:35;96992.34;;;8.44
72236;BMP280;60146;52.498;13.462;2023-12-20T00:59:00;96977.56;;;8.51
72236;BMP280;60146;52.498;13.462;2023-12-20T01:01:25;96984.53;;;8.44
72236;BMP280;60146;52.498;13.462;2023-12-20T01:03:51;96984.97;;;8.49
72236;BMP280;60146;52.498;13.462;2023-12-20T01:06:17;96978.69;;;8.53
72236;BMP280;60146;52.498;13.462;2023-12-20T01:08:42;96985.97;;;8.41
72236;BMP280;60146;52.498;13.462;2023-12-20T01:11:07;96985.44;;;8.54
72236;BMP280;60146;52.498;13.462;2023-12-20T01:13:33;96994.34;;;8.53
72236;BMP280;60146;52.498;13.462;2023-12-20T01:15:58;96995.09;;;8.54
72236;BMP280;60146;52.498;13.462;2023-12-20T01:18:23;97006.25;;;8.51
72236;BMP280;60146;52.498;13.462;2023-12-20T01:20:49;96997.50;;;8.66
72236;BMP280;60146;52.498;13.462;2023-12-20T01:23:14;97046.41;;;8.47
72236;BMP280;60146;52.498;13.462;2023-12-20T01:25:39;97031.13;;;8.45
72236;BMP280;60146;52.498;13.462;2023-12-20T01:28:05;97012.00;;;8.38
72236;BMP280;60146;52.498;13.462;2023-12-20T01:30:30;96984.53;;;8.44
72236;BMP280;60146;52.498;13.462;2023-12-20T01:32:55;96955.53;;;8.49
72236;BMP280;60146;52.498;13.462;2023-12-20T01:35:20;96958.38;;;8.40
72236;BMP280;60146;52.498;13.462;2023-12-20T01:37:46;96926.06;;;8.45
72236;BMP280;60146;52.498;13.462;2023-12-20T01:40:11;96892.25;;;8.51
72236;BMP280;60146;52.498;13.462;2023-12-20T01:42:36;96896.75;;;8.54
72236;BMP280;60146;52.498;13.462;2023-12-20T01:45:02;96876.19;;;8.49
72236;BMP280;60146;52.498;13.462;2023-12-20T01:47:28;96858.56;;;8.40
72236;BMP280;60146;52.498;13.462;2023-12-20T01:49:53;96838.84;;;8.42
72236;BMP280;60146;52.498;13.462;2023-12-20T01:52:20;96831.44;;;8.44
72236;BMP280;60146;52.498;13.462;2023-12-20T01:54:45;96820.66;;;8.46
72236;BMP280;60146;52.498;13.462;2023-12-20T01:57:12;96825.16;;;8.49
72236;BMP280;60146;52.498;13.462;2023-12-20T01:59:39;96827.69;;;8.42
72236;BMP280;60146;52.498;13.462;2023-12-20T02:02:05;96807.97;;;8.44
72236;BMP280;60146;52.498;13.462;2023-12-20T02:04:30;96812.50;;;8.50
72236;BMP280;60146;52.498;13.462;2023-12-20T02:06:57;96800.97;;;8.51
72236;BMP280;60146;52.498;13.462;2023-12-20T02:09:23;96803.66;;;8.58
72236;BMP280;60146;52.498;13.462;2023-12-20T02:11:49;96799.63;;;8.64
72236;BMP280;60146;52.498;13.462;2023-12-20T02:14:15;96806.72;;;8.67
72236;BMP280;60146;52.498;13.462;2023-12-20T02:16:40;96829.81;;;8.65
72236;BMP280;60146;52.498;13.462;2023-12-20T02:19:09;96823.13;;;8.68
72236;BMP280;60146;52.498;13.462;2023-12-20T02:21:37;96839.53;;;8.68
72236;BMP280;60146;52.498;13.462;2023-12-20T02:24:03;96865.22;;;8.66
72236;BMP280;60146;52.498;13.462;2023-12-20T02:26:28;96895.03;;;8.65
72236;BMP280;60146;52.498;13.462;2023-12-20T02:28:54;96965.34;;;8.58
72236;BMP280;60146;52.498;13.462;2023-12-20T02:31:23;96968.31;;;8.57
72236;BMP280;60146;52.498;13.462;2023-12-20T02:33:49;96986.63;;;8.35
72236;BMP280;60146;52.498;13.462;2023-12-20T02:36:14;96944.16;;;8.34
72236;BMP280;60146;52.498;13.462;2023-12-20T02:38:39;96910.75;;;8.43
72236;BMP280;60146;52.498;13.462;2023-12-20T02:41:05;96907.59;;;8.31
72236;BMP280;60146;52.498;13.462;2023-12-20T02:43:30;96867.47;;;8.35
72236;BMP280;60146;52.498;13.462;2023-12-20T02:45:55;96831.81;;;8.46
72236;BMP280;60146;52.498;13.462;2023-12-20T02:48:21;96824.91;;;8.60
72236;BMP280;60146;52.498;13.462;2023-12-20T02:50:47;96861.75;;;8.55
72236;BMP280;60146;52.498;13.462;2023-12-20T02:53:14;96881.22;;;8.65
72236;BMP280;60146;52.498;13.462;2023-12-20T02:55:39;96897.66;;;8.69
72236;BMP280;60146;52.498;13.462;2023-12-20T02:58:04;96965.84;;;8.67
72236;BMP280;60146;52.498;13.462;2023-12-20T03:00:30;97012.09;;;8.70
72236;BMP280;60146;52.498;13.462;2023-12-20T03:02:55;97057.25;;;8.74
72236;BMP280;60146;52.498;13.462;2023-12-20T03:05:20;97148.84;;;8.69
72236;BMP280;60146;52.498;13.462;2023-12-20T03:07:46;97187.59;;;8.67
72236;BMP280;60146;52.498;13.462;2023-12-20T03:10:11;97257.75;;;8.72
72236;BMP280;60146;52.498;13.462;2023-12-20T03:12:36;97289.47;;;8.74
72236;BMP280;60146;52.498;13.462;2023-12-20T03:15:02;97323.31;;;8.70
72236;BMP280;60146;52.498;13.462;2023-12-20T03:17:27;97329.41;;;8.59
72236;BMP280;60146;52.498;13.462;2023-12-20T03:19:53;97318.78;;;8.68
72236;BMP280;60146;52.498;13.462;2023-12-20T03:22:18;97305.94;;;8.59
72236;BMP280;60146;52.498;13.462;2023-12-20T03:24:43;97314.88;;;8.58
72236;BMP280;60146;52.498;13.462;2023-12-20T03:27:09;97314.81;;;8.55
72236;BMP280;60146;52.498;13.462;2023-12-20T03:29:34;97321.34;;;8.64
72236;BMP280;60146;52.498;13.462;2023-12-20T03:31:59;97347.66;;;8.59
72236;BMP280;60146;52.498;13.462;2023-12-20T03:34:25;97356.34;;;8.63
72236;BMP280;60146;52.498;13.462;2023-12-20T03:36:50;97394.63;;;8.59
72236;BMP280;60146;52.498;13.462;2023-12-20T03:39:15;97407.84;;;8.66
72236;BMP280;60146;52.498;13.462;2023-12-20T03:41:40;97432.53;;;8.53
72236;BMP280;60146;52.498;13.462;2023-12-20T03:44:06;97457.94;;;8.56
72236;BMP280;60146;52.498;13.462;2023-12-20T03:46:31;97444.00;;;8.49
72236;BMP280;60146;52.498;13.462;2023-12-20T03:48:56;97407.66;;;8.59
72236;BMP280;60146;52.498;13.462;2023-12-20T03:51:22;97461.72;;;8.59
72236;BMP280;60146;52.498;13.462;2023-12-20T03:53:47;97510.19;;;8.60
72236;BMP280;60146;52.498;13.462;2023-12-20T03:56:13;97534.00;;;8.58
72236;BMP280;60146;52.498;13.462;2023-12-20T03:58:38;97540.81;;;8.63
72236;BMP280;60146;52.498;13.462;2023-12-20T04:01:09;97542.66;;;8.62
72236;BMP280;60146;52.498;13.462;2023-12-20T04:03:35;97581.66;;;8.55
72236;BMP280;60146;52.498;13.462;2023-12-20T04:06:00;97605.88;;;8.41
72236;BMP280;60146;52.498;13.462;2023-12-20T04:08:25;97588.13;;;8.46
72236;BMP280;60146;52.498;13.462;2023-12-20T04:10:51;97600.84;;;8.48
72236;BMP280;60146;52.498;13.462;2023-12-20T04:13:16;97646.94;;;8.44
72236;BMP280;60146;52.498;13.462;2023-12-20T04:15:41;97638.53;;;8.50
72236;BMP280;60146;52.498;13.462;2023-12-20T04:18:07;97648.97;;;8.35
72236;BMP280;60146;52.498;13.462;2023-12-20T04:20:32;97648.47;;;8.45
72236;BMP280;60146;52.498;13.462;2023-12-20T04:22:57;97674.13;;;8.43
72236;BMP280;60146;52.498;13.462;2023-12-20T04:25:23;97659.97;;;8.28
72236;BMP280;60146;52.498;13.462;2023-12-20T04:27:48;97665.94;;;8.29
72236;BMP280;60146;52.498;13.462;2023-12-20T04:30:13;97645.94;;;8.33
72236;BMP280;60146;52.498;13.462;2023-12-20T04:32:38;97657.19;;;8.37
72236;BMP280;60146;52.498;13.462;2023-12-20T04:35:04;97703.59;;;8.16
72236;BMP280;60146;52.498;13.462;2023-12-20T04:37:29;97689.03;;;8.15
72236;BMP280;60146;52.498;13.462;2023-12-20T04:39:55;97680.81;;;8.13
72236;BMP280;60146;52.498;13.462;2023-12-20T04:42:20;97678.44;;;8.08
72236;BMP280;60146;52.498;13.462;2023-12-20T04:44:45;97668.56;;;8.02
72236;BMP280;60146;52.498;13.462;2023-12-20T04:47:11;97662.09;;;7.96
72236;BMP280;60146;52.498;13.462;2023-12-20T04:49:36;97645.97;;;8.06
72236;BMP280;60146;52.498;13.462;2023-12-20T04:52:01;97646.53;;;8.00
72236;BMP280;60146;52.498;13.462;2023-12-20T04:54:27;97658.59;;;7.92
72236;BMP280;60146;52.498;13.462;2023-12-20T04:56:52;97634.88;;;7.82
72236;BMP280;60146;52.498;13.462;2023-12-20T04:59:18;97630.06;;;7.69
72236;BMP280;60146;52.498;13.462;2023-12-20T05:01:43;97605.25;;;7.60
72236;BMP280;60146;52.498;13.462;2023-12-20T05:04:09;97592.16;;;7.71
72236;BMP280;60146;52.498;13.462;2023-12-20T05:06:34;97624.81;;;7.81
72236;BMP280;60146;52.498;13.462;2023-12-20T05:08:59;97646.66;;;7.91
72236;BMP280;60146;52.498;13.462;2023-12-20T05:11:25;97652.34;;;7.82
72236;BMP280;60146;52.498;13.462;2023-12-20T05:13:50;97641.25;;;7.69
72236;BMP280;60146;52.498;13.462;2023-12-20T05:16:15;97615.38;;;7.76
72236;BMP280;60146;52.498;13.462;2023-12-20T05:18:43;97620.13;;;7.86
72236;BMP280;60146;52.498;13.462;2023-12-20T05:21:08;97647.84;;;7.79
72236;BMP280;60146;52.498;13.462;2023-12-20T05:23:34;97645.50;;;7.89
72236;BMP280;60146;52.498;13.462;2023-12-20T05:25:59;97651.53;;;7.78
72236;BMP280;60146;52.498;13.462;2023-12-20T05:28:25;97651.13;;;7.91
72236;BMP280;60146;52.498;13.462;2023-12-20T05:30:51;97689.66;;;7.70
72236;BMP280;60146;52.498;13.462;2023-12-20T05:33:16;97672.06;;;7.67
72236;BMP280;60146;52.498;13.462;2023-12-20T05:35:41;97693.81;;;7.60
72236;BMP280;60146;52.498;13.462;2023-12-20T05:38:07;97676.00;;;7.50
72236;BMP280;60146;52.498;13.462;2023-12-20T05:40:32;97637.19;;;7.45
72236;BMP280;60146;52.498;13.462;2023-12-20T05:42:57;97647.81;;;7.40
72236;BMP280;60146;52.498;13.462;2023-12-20T05:45:23;97655.88;;;7.23
72236;BMP280;60146;52.498;13.462;2023-12-20T05:47:48;97653.16;;;7.32
72236;BMP280;60146;52.498;13.462;2023-12-20T05:50:13;97639.94;;;7.25
72236;BMP280;60146;52.498;13.462;2023-12-20T05:52:39;97661.09;;;7.12
72236;BMP280;60146;52.498;13.462;2023-12-20T05:55:04;97643.41;;;7.05
72236;BMP280;60146;52.498;13.462;2023-12-20T05:57:29;97631.59;;;7.08
72236;BMP280;60146;52.498;13.462;2023-12-20T05:59:55;97668.69;;;7.05
72236;BMP280;60146;52.498;13.462;2023-12-20T06:02:20;97679.75;;;6.90
72236;BMP280;60146;52.498;13.462;2023-12-20T06:04:45;97646.72;;;6.91
72236;BMP280;60146;52.498;13.462;2023-12-20T06:07:12;97632.94;;;7.02
72236;BMP280;60146;52.498;13.462;2023-12-20T06:09:38;97630.50;;;6.97
72236;BMP280;60146;52.498;13.462;2023-12-20T06:12:03;97611.88;;;6.83
72236;BMP280;60146;52.498;13.462;2023-12-20T06:14:28;97589.16;;;6.92
72236;BMP280;60146;52.498;13.462;2023-12-20T06:16:56;97605.59;;;6.96
72236;BMP280;60146;52.498;13.462;2023-12-20T06:19:21;97613.81;;;6.98
72236;BMP280;60146;52.498;13.462;2023-12-20T06:21:47;97608.19;;;6.96
72236;BMP280;60146;52.498;13.462;2023-12-20T06:24:12;97591.75;;;6.92
72236;BMP280;60146;52.498;13.462;2023-12-20T06:26:37;97604.19;;;6.87
72236;BMP280;60146;52.498;13.462;2023-12-20T06:29:04;97603.84;;;6.88
72236;BMP280;60146;52.498;13.462;2023-12-20T06:31:29;97621.63;;;6.86
72236;BMP280;60146;52.498;13.462;2023-12-20T06:33:55;97626.84;;;6.86
72236;BMP280;60146;52.498;13.462;2023-12-20T06:36:23;97626.97;;;6.90
72236;BMP280;60146;52.498;13.462;2023-12-20T06:38:48;97634.13;;;6.81
72236;BMP280;60146;52.498;13.462;2023-12-20T06:41:15;97644.94;;;6.83
72236;BMP280;60146;52.498;13.462;2023-12-20T06:43:40;97623.78;;;6.96
72236;BMP280;60146;52.498;13.462;2023-12-20T06:46:06;97671.50;;;6.88
72236;BMP280;60146;52.498;13.462;2023-12-20T06:48:31;97651.59;;;6.92
72236;BMP280;60146;52.498;13.462;2023-12-20T06:50:59;97645.94;;;7.02
72236;BMP280;60146;52.498;13.462;2023-12-20T06:53:24;97642.88;;;6.88
72236;BMP280;60146;52.498;13.462;2023-12-20T06:55:50;97611.69;;;7.00
72236;BMP280;60146;52.498;13.462;2023-12-20T06:58:15;97647.00;;;6.89
72236;BMP280;60146;52.498;13.462;2023-12-20T07:00:41;97636.03;;;6.96
72236;BMP280;60146;52.498;13.462;2023-12-20T07:03:07;97625.94;;;7.06
72236;BMP280;60146;52.498;13.462;2023-12-20T07:05:32;97625.88;;;7.03
72236;BMP280;60146;52.498;13.462;2023-12-20T07:07:58;97610.47;;;7.09
72236;BMP280;60146;52.498;13.462;2023-12-20T07:10:23;97612.53;;;7.04
72236;BMP280;60146;52.498;13.462;2023-12-20T07:12:49;97627.28;;;7.00
72236;BMP280;60146;52.498;13.462;2023-12-20T07:15:14;97618.84;;;7.03
72236;BMP280;60146;52.498;13.462;2023-12-20T07:17:40;97620.34;;;7.04
72236;BMP280;60146;52.498;13.462;2023-12-20T07:20:05;97639.38;;;7.08
72236;BMP280;60146;52.498;13.462;2023-12-20T07:22:34;97637.88;;;7.07
72236;BMP280;60146;52.498;13.462;2023-12-20T07:25:00;97642.16;;;7.00
72236;BMP280;60146;52.498;13.462;2023-12-20T07:27:26;97622.50;;;7.14
72236;BMP280;60146;52.498;13.462;2023-12-20T07:29:51;97663.91;;;7.19
72236;BMP280;60146;52.498;13.462;2023-12-20T07:32:17;97697.97;;;7.14
72236;BMP280;60146;52.498;13.462;2023-12-20T07:34:42;97710.56;;;7.12
72236;BMP280;60146;52.498;13.462;2023-12-20T07:37:07;97708.91;;;7.19
72236;BMP280;60146;52.498;13.462;2023-12-20T07:39:35;97750.56;;;7.19
72236;BMP280;60146;52.498;13.462;2023-12-20T07:42:01;97763.25;;;7.21
72236;BMP280;60146;52.498;13.462;2023-12-20T07:44:26;97753.09;;;7.27
72236;BMP280;60146;52.498;13.462;2023-12-20T07:46:52;97815.56;;;7.27
72236;BMP280;60146;52.498;13.462;2023-12-20T07:49:18;97812.50;;;7.25
72236;BMP280;60146;52.498;13.462;2023-12-20T07:51:44;97784.53;;;7.23
72236;BMP280;60146;52.498;13.462;2023-12-20T07:54:09;97802.53;;;7.16
72236;BMP280;60146;52.498;13.462;2023-12-20T07:56:34;97814.47;;;7.28
72236;BMP280;60146;52.498;13.462;2023-12-20T07:59:00;97854.38;;;7.32
72236;BMP280;60146;52.498;13.462;2023-12-20T08:01:26;97852.22;;;7.34
72236;BMP280;60146;52.498;13.462;2023-12-20T08:03:52;97871.09;;;7.31
72236;BMP280;60146;52.498;13.462;2023-12-20T08:06:17;97929.34;;;7.27
72236;BMP280;60146;52.498;13.462;2023-12-20T08:08:43;97907.34;;;7.36
72236;BMP280;60146;52.498;13.462;2023-12-20T08:11:08;97939.56;;;7.44
72236;BMP280;60146;52.498;13.462;2023-12-20T08:13:34;97982.56;;;7.38
72236;BMP280;60146;52.498;13.462;2023-12-20T08:15:59;97987.84;;;7.41
72236;BMP280;60146;52.498;13.462;2023-12-20T08:18:24;98038.84;;;7.42
72236;BMP280;60146;52.498;13.462;2023-12-20T08:20:50;98014.56;;;7.38
72236;BMP280;60146;52.498;13.462;2023-12-20T08:23:18;97992.22;;;7.37
72236;BMP280;60146;52.498;13.462;2023-12-20T08:25:43;97987.84;;;7.41
72236;BMP280;60146;52.498;13.462;2023-12-20T08:28:08;98001.47;;;7.46
72236;BMP280;60146;52.498;13.462;2023-12-20T08:30:34;98025.19;;;7.45
72236;BMP280;60146;52.498;13.462;2023-12-20T08:33:00;98024.22;;;7.38
72236;BMP280;60146;52.498;13.462;2023-12-20T08:35:26;98026.72;;;7.46
72236;BMP280;60146;52.498;13.462;2023-12-20T08:37:51;98014.22;;;7.40
72236;BMP280;60146;52.498;13.462;2023-12-20T08:40:17;98004.34;;;7.45
72236;BMP280;60146;52.498;13.462;2023-12-20T08:42:42;98012.41;;;7.52
72236;BMP280;60146;52.498;13.462;2023-12-20T08:45:08;98037.53;;;7.56
72236;BMP280;60146;52.498;13.462;2023-12-20T08:47:33;98040.28;;;7.51
72236;BMP280;60146;52.498;13.462;2023-12-20T08:49:58;98045.88;;;7.62
72236;BMP280;60146;52.498;13.462;2023-12-20T08:52:26;98064.72;;;7.79
72236;BMP280;60146;52.498;13.462;2023-12-20T08:54:54;98140.53;;;7.86
72236;BMP280;60146;52.498;13.462;2023-12-20T08:57:20;98129.97;;;7.82
72236;BMP280;60146;52.498;13.462;2023-12-20T08:59:52;98126.09;;;7.88
72236;BMP280;60146;52.498;13.462;2023-12-20T09:02:17;98138.38;;;7.87
72236;BMP280;60146;52.498;13.462;2023-12-20T09:04:43;98145.59;;;7.82
72236;BMP280;60146;52.498;13.462;2023-12-20T09:07:34;98137.03;;;7.82
72236;BMP280;60146;52.498;13.462;2023-12-20T09:10:00;98155.22;;;7.90
72236;BMP280;60146;52.498;13.462;2023-12-20T09:12:25;98215.41;;;7.97
72236;BMP280;60146;52.498;13.462;2023-12-20T09:14:51;98214.25;;;8.06
72236;BMP280;60146;52.498;13.462;2023-12-20T09:17:18;98273.22;;;8.19
72236;BMP280;60146;52.498;13.462;2023-12-20T09:19:44;98299.59;;;8.17
72236;BMP280;60146;52.498;13.462;2023-12-20T09:22:10;98291.97;;;8.12
72236;BMP280;60146;52.498;13.462;2023-12-20T09:24:36;98327.84;;;8.15
72236;BMP280;60146;52.498;13.462;2023-12-20T09:27:01;98311.03;;;8.05
72236;BMP280;60146;52.498;13.462;2023-12-20T09:29:27;98268.47;;;7.92
72236;BMP280;60146;52.498;13.462;2023-12-20T09:31:53;98270.09;;;8.05
72236;BMP280;60146;52.498;13.462;2023-12-20T09:34:18;98249.81;;;8.10
72236;BMP280;60146;52.498;13.462;2023-12-20T09:36:43;98200.16;;;7.87
72236;BMP280;60146;52.498;13.462;2023-12-20T09:39:16;98210.22;;;7.97
72236;BMP280;60146;52.498;13.462;2023-12-20T09:41:45;98194.63;;;7.88
72236;BMP280;60146;52.498;13.462;2023-12-20T09:44:16;98136.56;;;8.00
72236;BMP280;60146;52.498;13.462;2023-12-20T09:46:44;98203.69;;;8.03
72236;BMP280;60146;52.498;13.462;2023-12-20T09:49:11;98252.81;;;8.01
72236;BMP280;60146;52.498;13.462;2023-12-20T09:51:37;98231.31;;;8.04
72236;BMP280;60146;52.498;13.462;2023-12-20T09:54:03;98234.56;;;8.01
72236;BMP280;60146;52.498;13.462;2023-12-20T09:56:29;98254.28;;;8.02
72236;BMP280;60146;52.498;13.462;2023-12-20T09:58:55;98234.13;;;7.99
72236;BMP280;60146;52.498;13.462;2023-12-20T10:01:21;98225.63;;;8.02
72236;BMP280;60146;52.498;13.462;2023-12-20T10:03:46;98215.75;;;7.95
72236;BMP280;60146;52.498;13.462;2023-12-20T10:06:12;98246.94;;;8.04
72236;BMP280;60146;52.498;13.462;2023-12-20T10:08:38;98311.94;;;8.08
72236;BMP280;60146;52.498;13.462;2023-12-20T10:11:04;98321.59;;;8.08
72236;BMP280;60146;52.498;13.462;2023-12-20T10:13:30;98290.63;;;8.07
72236;BMP280;60146;52.498;13.462;2023-12-20T10:15:55;98326.75;;;8.16
72236;BMP280;60146;52.498;13.462;2023-12-20T10:18:21;98306.06;;;8.11
72236;BMP280;60146;52.498;13.462;2023-12-20T10:20:46;98329.38;;;8.16
72236;BMP280;60146;52.498;13.462;2023-12-20T10:23:12;98380.91;;;8.19
72236;BMP280;60146;52.498;13.462;2023-12-20T10:25:39;98424.59;;;8.22
72236;BMP280;60146;52.498;13.462;2023-12-20T10:30:36;98394.44;;;8.13
72236;BMP280;60146;52.498;13.462;2023-12-20T10:33:02;98428.78;;;8.15
72236;BMP280;60146;52.498;13.462;2023-12-20T10:35:28;98446.41;;;8.18
72236;BMP280;60146;52.498;13.462;2023-12-20T10:37:55;98421.34;;;8.25
72236;BMP280;60146;52.498;13.462;2023-12-20T10:40:25;98526.75;;;8.24
72236;BMP280;60146;52.498;13.462;2023-12-20T10:42:53;98509.72;;;8.27
72236;BMP280;60146;52.498;13.462;2023-12-20T10:45:19;98496.38;;;8.28
72236;BMP280;60146;52.498;13.462;2023-12-20T10:47:48;98513.22;;;8.30
72236;BMP280;60146;52.498;13.462;2023-12-20T10:50:14;98536.94;;;8.46
72236;BMP280;60146;52.498;13.462;2023-12-20T10:52:40;98609.19;;;8.53
72236;BMP280;60146;52.498;13.462;2023-12-20T10:55:06;98575.56;;;8.60
72236;BMP280;60146;52.498;13.462;2023-12-20T10:57:32;98617.66;;;8.50
72236;BMP280;60146;52.498;13.462;2023-12-20T11:00:01;98600.59;;;8.53
72236;BMP280;60146;52.498;13.462;2023-12-20T11:02:29;98550.16;;;8.41
72236;BMP280;60146;52.498;13.462;2023-12-20T11:05:06;98534.34;;;8.46
72236;BMP280;60146;52.498;13.462;2023-12-20T11:07:43;98541.44;;;8.37
72236;BMP280;60146;52.498;13.462;2023-12-20T11:10:19;98533.88;;;8.44
72236;BMP280;60146;52.498;13.462;2023-12-20T11:12:53;98513.63;;;8.41
72236;BMP280;60146;52.498;13.462;2023-12-20T11:15:20;98480.03;;;8.39
72236;BMP280;60146;52.498;13.462;2023-12-20T11:17:46;98454.97;;;8.47
72236;BMP280;60146;52.498;13.462;2023-12-20T11:20:11;98434.56;;;8.40
72236;BMP280;60146;52.498;13.462;2023-12-20T11:22:37;98341.97;;;8.34
72236;BMP280;60146;52.498;13.462;2023-12-20T11:25:06;98285.53;;;8.30
72236;BMP280;60146;52.498;13.462;2023-12-20T11:27:35;98263.34;;;8.24
72236;BMP280;60146;52.498;13.462;2023-12-20T11:30:03;98213.09;;;8.15
72236;BMP280;60146;52.498;13.462;2023-12-20T11:32:31;98182.81;;;8.23
72236;BMP280;60146;52.498;13.462;2023-12-20T11:35:00;98219.09;;;8.16
72236;BMP280;60146;52.498;13.462;2023-12-20T11:37:29;98176.25;;;8.05
72236;BMP280;60146;52.498;13.462;2023-12-20T11:40:17;98140.09;;;8.15
72236;BMP280;60146;52.498;13.462;2023-12-20T11:42:44;98119.88;;;8.12
72236;BMP280;60146;52.498;13.462;2023-12-20T11:45:11;98091.41;;;8.07
72236;BMP280;60146;52.498;13.462;2023-12-20T11:47:40;98100.56;;;8.13
72236;BMP280;60146;52.498;13.462;2023-12-20T11:50:06;98173.69;;;8.17
72236;BMP280;60146;52.498;13.462;2023-12-20T11:52:31;98205.53;;;8.22
72236;BMP280;60146;52.498;13.462;2023-12-20T11:54:57;98190.31;;;8.24
72236;BMP280;60146;52.498;13.462;2023-12-20T11:57:22;98195.09;;;8.22
72236;BMP280;60146;52.498;13.462;2023-12-20T11:59:48;98159.91;;;8.28
72236;BMP280;60146;52.498;13.462;2023-12-20T12:02:13;98171.09;;;8.28
72236;BMP280;60146;52.498;13.462;2023-12-20T12:04:41;98187.28;;;8.22
72236;BMP280;60146;52.498;13.462;2023-12-20T12:07:06;98130.44;;;8.16
72236;BMP280;60146;52.498;13.462;2023-12-20T12:09:32;98127.72;;;8.12
72236;BMP280;60146;52.498;13.462;2023-12-20T12:11:58;98155.22;;;8.22
72236;BMP280;60146;52.498;13.462;2023-12-20T12:14:23;98181.19;;;8.18
72236;BMP280;60146;52.498;13.462;2023-12-20T12:16:49;98237.81;;;8.29
72236;BMP280;60146;52.498;13.462;2023-12-20T12:19:22;98206.34;;;8.34
72236;BMP280;60146;52.498;13.462;2023-12-20T12:21:49;98277.00;;;8.41
72236;BMP280;60146;52.498;13.462;2023-12-20T12:24:14;98283.28;;;8.40
72236;BMP280;60146;52.498;13.462;2023-12-20T12:26:39;98297.94;;;8.33
72236;BMP280;60146;52.498;13.462;2023-12-20T12:29:07;98212.44;;;8.38
72236;BMP280;60146;52.498;13.462;2023-12-20T12:31:33;98161.84;;;8.19
72236;BMP280;60146;52.498;13.462;2023-12-20T12:33:58;98134.25;;;8.18
72236;BMP280;60146;52.498;13.462;2023-12-20T12:36:23;98067.41;;;8.14
72236;BMP280;60146;52.498;13.462;2023-12-20T12:38:49;97999.84;;;8.09
72236;BMP280;60146;52.498;13.462;2023-12-20T12:41:14;97956.03;;;7.91
72236;BMP280;60146;52.498;13.462;2023-12-20T12:43:40;97766.59;;;7.80
72236;BMP280;60146;52.498;13.462;2023-12-20T12:46:06;97724.81;;;7.76
72236;BMP280;60146;52.498;13.462;2023-12-20T12:48:32;97708.97;;;7.69
72236;BMP280;60146;52.498;13.462;2023-12-20T12:50:58;97583.56;;;7.56
72236;BMP280;60146;52.498;13.462;2023-12-20T12:53:27;97536.97;;;7.66
72236;BMP280;60146;52.498;13.462;2023-12-20T12:55:53;97530.53;;;7.48
72236;BMP280;60146;52.498;13.462;2023-12-20T12:58:19;97499.44;;;7.55
72236;BMP280;60146;52.498;13.462;2023-12-20T13:00:45;97462.34;;;7.58
72236;BMP280;60146;52.498;13.462;2023-12-20T13:03:10;97457.00;;;7.55
72236;BMP280;60146;52.498;13.462;2023-12-20T13:05:35;97449.72;;;7.60
72236;BMP280;60146;52.498;13.462;2023-12-20T13:08:01;97439.88;;;7.54
72236;BMP280;60146;52.498;13.462;2023-12-20T13:10:26;97383.03;;;7.56
72236;BMP280;60146;52.498;13.462;2023-12-20T13:12:52;97321.72;;;7.58
72236;BMP280;60146;52.498;13.462;2023-12-20T13:15:17;97319.75;;;7.55
72236;BMP280;60146;52.498;13.462;2023-12-20T13:17:42;97320.09;;;7.54
72236;BMP280;60146;52.498;13.462;2023-12-20T13:20:08;97300.69;;;7.51
72236;BMP280;60146;52.498;13.462;2023-12-20T13:22:33;97274.66;;;7.51
72236;BMP280;60146;52.498;13.462;2023-12-20T13:24:59;97236.53;;;7.59
72236;BMP280;60146;52.498;13.462;2023-12-20T13:27:24;97175.56;;;7.63
72236;BMP280;60146;52.498;13.462;2023-12-20T13:29:49;97179.34;;;7.47
72236;BMP280;60146;52.498;13.462;2023-12-20T13:32:15;97277.13;;;6.99
72236;BMP280;60146;52.498;13.462;2023-12-20T13:34:40;97362.41;;;6.79
72236;BMP280;60146;52.498;13.462;2023-12-20T13:37:05;97463.00;;;6.75
72236;BMP280;60146;52.498;13.462;2023-12-20T13:39:31;97491.72;;;6.66
72236;BMP280;60146;52.498;13.462;2023-12-20T13:41:56;97471.91;;;6.62
72236;BMP280;60146;52.498;13.462;2023-12-20T13:44:22;97577.22;;;6.68
72236;BMP280;60146;52.498;13.462;2023-12-20T13:46:47;97588.94;;;6.62
72236;BMP280;60146;52.498;13.462;2023-12-20T13:49:14;97528.13;;;6.66
72236;BMP280;60146;52.498;13.462;2023-12-20T13:51:40;97598.25;;;6.63
72236;BMP280;60146;52.498;13.462;2023-12-20T13:54:05;97629.22;;;6.68
72236;BMP280;60146;52.498;13.462;2023-12-20T13:56:30;97721.34;;;6.67
72236;BMP280;60146;52.498;13.462;2023-12-20T13:58:56;97749.19;;;6.66
72236;BMP280;60146;52.498;13.462;2023-12-20T14:01:21;97743.88;;;6.75
72236;BMP280;60146;52.498;13.462;2023-12-20T14:03:46;97770.34;;;6.77